Historyczne dane pomiarowe

Dodano dane terminowe – wersja testowa.

Dane z okresu 1951-2019

Wersja bazy: 1.34 [2019-03-16, lista zmian], aktualizacja planowana na 2019-04-15

Dane meteo z obszaru Polski uzyskane na podstawie danych udostępnionych przez Instytut Meteorologii i Gospodarki Wodnej – Państwowy Instytut Badawczy.

 

Wybierz Datę:    

       

TemperaturaWilgotnośćWiatrCiśnienieOpadyŚniegCzas trwania zjawisk
 Stacja t tx tn tng RH VA  wxwx mslp ppp RRR   cm mm wxwxwxwxwxwxwx
1984-06-13 15.1 21.7 5.7 0.6 64.8- 6.7 2.0---- 1.3------------
1984-06-14 15.9 19.4 12.9 11.4 85.8- 6.7 3.0---- 8.1------------
1984-06-15 12.5 15.2 9.8 8.1 82.8- 6.7 5.0---- 7.8------------
1984-06-16 12.4 15.4 10.4 10.0 92.0- 7.3 2.3---- 8.9------------
1984-06-17 14.3 18.6 10.9 10.1 85.3- 5.0 0.7---- 0.0------------
1984-06-18 14.5 20.0 7.9 5.1 82.0- 7.3 0.7---- 0.0------------
1984-06-19 17.1 23.1 7.9 4.9 74.0- 1.0 1.7---- 0.0------------
1984-06-20 19.2 24.8 9.8 6.6 75.5- 2.7 0.7---- 0.0------------
1984-06-21 20.2 26.1 13.4 10.1 78.3- 5.3 0.3---- 5.7------------
1984-06-22 16.5 23.8 13.6 13.2 81.0- 5.0 2.3---- 0.6------------
1984-06-23 14.9 17.1 10.6 9.9 73.0- 5.7 5.7---- 2.3------------
1984-06-24 11.6 16.2 7.4 5.1 69.5- 6.0 5.7---- 0.4------------
1984-06-25 10.7 13.9 8.9 5.2 70.0- 7.3 6.7---- 8.8------------
1984-06-26 11.4 14.6 9.2 8.5 88.0- 6.7 7.0---- 3.6------------
1984-06-27 13.4 20.1 11.0 8.3 73.8- 6.7 5.3---- 1.0------------
1984-06-28 15.1 19.8 13.9 8.7 82.5- 7.0 4.0---- 0.2------------
1984-06-29 12.8 16.4 10.7 7.5 74.0- 2.3 4.0---- 0.0------------
1984-06-30 11.0 16.8 5.3 5.0 81.5- 6.3 3.3---- 5.9------------
1984-07-01 11.4 16.2 7.3 4.2 79.3- 5.3 2.7---- 0.0------------
1984-07-02 12.6 18.2 8.3 4.0 81.5- 4.0 2.3---- 8.6------------
1984-07-03 10.5 15.9 9.3 3.8 90.5- 8.0 4.0---- 5.3------------
1984-07-04 11.8 15.0 9.7 3.9 83.8- 6.3 3.7---- 0.0------------
1984-07-05 11.8 13.4 9.7 5.1 81.3- 8.0 5.0---- 2.6------------
1984-07-06 12.0 15.2 10.5 9.9 88.8- 6.7 5.0---- 1.5------------
1984-07-07 14.4 19.8 11.5 7.5 78.0- 3.3 2.0---- 0.0------------
1984-07-08 16.9 23.7 8.3 2.3 67.8- 0.0 3.3---- 0.0------------
1984-07-09 20.1 26.4 12.3 3.9 63.0- 0.0 3.0---- 0.0------------
1984-07-10 23.7 32.6 14.2 11.0 63.3- 0.0 1.7---- 0.0------------
1984-07-11 27.5 34.6 17.8 11.5 59.0- 0.0 2.0---- 0.0------------
1984-07-12 24.8 30.6 23.7 17.3 65.8- 3.7 5.0---- 0.0------------
166.6 ms

 

Źródłem pochodzenia danych jest Instytut Meteorologii i Gospodarki Wodnej – Państwowy Instytut Badawczy. Dane Instytutu Meteorologii i Gospodarki Wodnej – Państwowego Instytutu Badawczego zostały przetworzone.

Dane źródłowe można odnaleźć na stronie https://dane.imgw.pl